Time;durP1;ratioP1;P1;durP2;ratioP2;P2;SDS_P1;SDS_P2;PMS_P1;PMS_P2;Temp;Humidity;BMP_temperature;BMP_pressure;BME280_temperature;BME280_humidity;BME280_pressure;Samples;Min_cycle;Max_cycle;Signal;HPM_P1;HPM_P2
2022/10/20 00:01:42;;;;;;;6.10;3.10;;;;;;;21.42;66.25;100516.13;4972672;28;20496;-68
2022/10/20 00:04:07;;;;;;;8.10;3.67;;;;;;;21.42;65.87;100518.19;4952980;28;20246;-68
2022/10/20 00:06:32;;;;;;;10.37;3.40;;;;;;;21.37;65.90;100516.50;4954679;29;20191;-68
2022/10/20 00:09:00;;;;;;;6.13;3.40;;;;;;;21.38;66.12;100512.41;4937213;29;20183;-68
2022/10/20 00:11:27;;;;;;;8.33;3.53;;;;;;;21.35;66.02;100510.34;4936376;28;20699;-67
2022/10/20 00:13:53;;;;;;;5.07;2.33;;;;;;;21.34;66.26;100505.81;4953129;29;20399;-68
2022/10/20 00:16:19;;;;;;;5.03;3.30;;;;;;;21.32;66.07;100493.88;4954432;28;20415;-67
2022/10/20 00:18:44;;;;;;;5.27;2.90;;;;;;;21.31;66.81;100483.63;4924023;28;20489;-68
2022/10/20 00:21:15;;;;;;;9.90;3.23;;;;;;;21.30;66.17;100469.66;4956632;28;20174;-68
2022/10/20 00:23:40;;;;;;;4.57;2.90;;;;;;;21.29;66.80;100470.88;4939811;28;20171;-68
2022/10/20 00:26:11;;;;;;;7.17;3.20;;;;;;;21.28;66.42;100467.16;4955411;28;20460;-68
2022/10/20 00:28:36;;;;;;;6.30;3.00;;;;;;;21.28;66.63;100469.22;4972517;28;20177;-68
2022/10/20 00:31:03;;;;;;;6.23;2.77;;;;;;;21.26;67.13;100465.91;4955528;28;20434;-68
2022/10/20 00:33:28;;;;;;;4.57;3.07;;;;;;;21.24;66.98;100466.31;4938790;28;20298;-68
2022/10/20 00:35:53;;;;;;;6.30;2.70;;;;;;;21.24;67.34;100466.31;4955653;28;20414;-68
2022/10/20 00:38:19;;;;;;;4.27;2.47;;;;;;;21.23;67.25;100458.91;4939354;28;20229;-68
2022/10/20 00:40:44;;;;;;;7.13;3.03;;;;;;;21.22;67.45;100457.25;4942534;28;20179;-68
2022/10/20 00:43:11;;;;;;;6.83;3.40;;;;;;;21.21;67.23;100447.00;4988089;28;20174;-68
2022/10/20 00:45:37;;;;;;;4.53;3.10;;;;;;;21.23;67.02;100447.44;4971982;28;20198;-67
2022/10/20 00:48:15;;;;;;;3.90;2.20;;;;;;;21.21;67.17;100447.00;4955638;28;20414;-68
2022/10/20 00:50:42;;;;;;;4.20;2.80;;;;;;;21.22;67.01;100444.97;4955739;28;20175;-68
2022/10/20 00:53:08;;;;;;;5.77;3.10;;;;;;;21.21;66.73;100438.41;4971872;28;20568;-68
2022/10/20 00:55:34;;;;;;;5.63;2.90;;;;;;;21.21;67.05;100438.41;4956005;28;20402;-67
2022/10/20 00:58:00;;;;;;;3.40;2.80;;;;;;;21.20;67.28;100439.63;4956803;28;20587;-67
2022/10/20 01:00:36;;;;;;;4.50;2.77;;;;;;;21.19;67.20;100422.78;4973042;28;20444;-68
2022/10/20 01:03:02;;;;;;;7.30;3.57;;;;;;;21.19;67.10;100419.91;4939907;28;20681;-68
2022/10/20 01:05:27;;;;;;;6.53;2.90;;;;;;;21.20;66.94;100412.94;4955351;28;20461;-67
2022/10/20 01:07:53;;;;;;;6.00;2.93;;;;;;;21.19;67.54;100415.00;4955557;28;20190;-68
2022/10/20 01:10:18;;;;;;;4.20;2.33;;;;;;;21.19;67.02;100417.88;4955898;28;20178;-68
2022/10/20 01:13:06;;;;;;;5.60;2.97;;;;;;;21.18;67.20;100416.19;4955576;28;20175;-68
2022/10/20 01:15:44;;;;;;;5.23;2.43;;;;;;;21.18;67.41;100421.94;4958049;28;20222;-68
2022/10/20 01:18:12;;;;;;;4.63;2.53;;;;;;;21.16;66.96;100421.53;4987450;28;20413;-68
2022/10/20 01:21:04;;;;;;;5.80;2.70;;;;;;;21.16;67.48;100415.78;4972874;28;20410;-68
2022/10/20 01:23:41;;;;;;;3.57;2.30;;;;;;;21.16;67.29;100410.03;4971466;28;20401;-68
2022/10/20 01:26:37;;;;;;;3.90;2.80;;;;;;;21.17;67.43;100416.63;4972475;28;20453;-68
2022/10/20 01:29:21;;;;;;;4.10;2.50;;;;;;;21.16;67.20;100407.16;4972618;28;20925;-68
2022/10/20 01:32:04;;;;;;;4.00;2.80;;;;;;;21.16;67.09;100406.34;4955158;28;20545;-68
2022/10/20 01:34:51;;;;;;;6.60;2.30;;;;;;;21.13;67.24;100413.69;4972517;28;20444;-68
2022/10/20 01:37:43;;;;;;;2.80;1.83;;;;;;;21.13;67.68;100419.44;4972360;28;20468;-67
2022/10/20 01:40:15;;;;;;;4.40;2.77;;;;;;;21.14;67.54;100421.09;4940166;28;20907;-68
2022/10/20 01:42:41;;;;;;;5.33;2.77;;;;;;;21.13;67.51;100424.38;4971962;28;20417;-68
2022/10/20 01:45:06;;;;;;;6.50;3.07;;;;;;;21.13;67.78;100416.56;4955171;28;20771;-68
2022/10/20 01:47:32;;;;;;;7.17;2.60;;;;;;;21.13;67.59;100418.63;4972750;28;20649;-68
2022/10/20 01:49:58;;;;;;;9.10;3.23;;;;;;;21.12;67.63;100411.25;4939219;28;20170;-68
2022/10/20 01:52:23;;;;;;;3.57;2.63;;;;;;;21.12;67.66;100411.25;4938697;28;20557;-68
2022/10/20 01:54:48;;;;;;;6.07;3.30;;;;;;;21.12;67.98;100406.31;4940337;28;21011;-67
2022/10/20 01:57:48;;;;;;;3.57;2.53;;;;;;;21.11;67.46;100396.06;4955282;28;20737;-68
2022/10/20 02:00:14;;;;;;;3.23;2.30;;;;;;;21.11;67.95;100390.31;4986856;28;20186;-68
2022/10/20 02:02:47;;;;;;;3.73;2.17;;;;;;;21.10;67.46;100385.78;4956881;28;20429;-68
2022/10/20 02:05:50;;;;;;;3.20;2.30;;;;;;;21.11;67.36;100375.94;4935381;29;20479;-67
2022/10/20 02:08:27;;;;;;;3.63;2.30;;;;;;;21.10;67.58;100368.56;4952887;29;20422;-68
2022/10/20 02:10:58;;;;;;;4.20;2.60;;;;;;;21.09;67.92;100358.31;4952923;29;20431;-68
2022/10/20 02:13:23;;;;;;;3.50;2.50;;;;;;;21.09;67.88;100371.81;4918722;29;20973;-68
2022/10/20 02:15:54;;;;;;;3.57;2.33;;;;;;;21.09;67.85;100366.09;4924244;28;20444;-68
2022/10/20 02:18:23;;;;;;;3.77;2.20;;;;;;;21.09;67.60;100389.06;4937732;28;20177;-68
2022/10/20 02:20:50;;;;;;;4.33;2.10;;;;;;;21.09;67.44;100378.41;4937560;28;20484;-68
2022/10/20 02:23:15;;;;;;;4.23;2.53;;;;;;;21.09;67.75;100374.69;4936885;28;20505;-68
2022/10/20 02:25:41;;;;;;;5.23;2.20;;;;;;;21.08;67.92;100382.47;4936727;28;20496;-67
2022/10/20 02:28:09;;;;;;;4.20;2.60;;;;;;;21.09;67.86;100380.44;4937450;28;20190;-67
2022/10/20 02:30:34;;;;;;;3.10;2.13;;;;;;;21.09;67.76;100394.78;4953579;28;20182;-68
2022/10/20 02:32:59;;;;;;;3.70;2.47;;;;;;;21.08;68.01;100387.41;4953698;28;20425;-68
2022/10/20 02:35:28;;;;;;;8.03;2.23;;;;;;;21.08;68.03;100382.47;4957668;28;20182;-68
2022/10/20 02:37:55;;;;;;;3.80;2.40;;;;;;;21.08;67.63;100382.47;4958850;28;20163;-68
2022/10/20 02:40:21;;;;;;;3.33;2.40;;;;;;;21.07;67.69;100386.56;4975755;28;20792;-68
2022/10/20 02:42:46;;;;;;;2.73;2.13;;;;;;;21.07;67.80;100386.56;4974183;28;20430;-67
2022/10/20 02:45:12;;;;;;;3.23;2.20;;;;;;;21.07;67.66;100388.63;4942206;28;20167;-68
2022/10/20 02:47:37;;;;;;;3.70;2.50;;;;;;;21.06;67.73;100384.09;4975356;28;20233;-68
2022/10/20 02:50:04;;;;;;;3.53;2.20;;;;;;;21.06;67.54;100393.53;4944427;28;20174;-68
2022/10/20 02:52:29;;;;;;;3.07;2.10;;;;;;;21.07;67.88;100398.06;4958006;28;20584;-68
2022/10/20 02:54:54;;;;;;;2.80;2.27;;;;;;;21.06;67.52;100395.56;4990337;28;20425;-68
2022/10/20 02:57:20;;;;;;;4.00;2.53;;;;;;;21.06;68.16;100405.03;4958303;28;20221;-67
2022/10/20 02:59:45;;;;;;;3.93;2.63;;;;;;;21.05;68.24;100396.81;4975265;28;20182;-68
2022/10/20 03:02:11;;;;;;;3.10;2.50;;;;;;;21.05;67.79;100397.63;4957820;28;20183;-68
2022/10/20 03:04:36;;;;;;;3.77;2.50;;;;;;;21.05;67.65;100391.06;4969985;28;20563;-68
2022/10/20 03:07:02;;;;;;;2.70;2.00;;;;;;;21.05;68.03;100376.72;4938586;29;20550;-68
2022/10/20 03:09:27;;;;;;;2.53;2.03;;;;;;;21.05;68.08;100391.06;4938115;29;20631;-68
2022/10/20 03:11:53;;;;;;;2.93;2.23;;;;;;;21.04;67.90;100384.50;4955828;29;20183;-67
2022/10/20 03:14:18;;;;;;;3.90;2.30;;;;;;;21.06;68.15;100381.22;4954566;29;20187;-67
2022/10/20 03:16:44;;;;;;;3.20;2.20;;;;;;;21.04;67.74;100363.59;4938751;29;20159;-68
2022/10/20 03:19:09;;;;;;;2.97;2.00;;;;;;;21.04;67.80;100364.41;4954085;29;20174;-68
2022/10/20 03:21:35;;;;;;;4.30;2.37;;;;;;;21.04;67.90;100352.94;4954407;29;20190;-68
2022/10/20 03:24:00;;;;;;;3.37;2.37;;;;;;;21.04;68.33;100340.63;4969450;28;20198;-67
2022/10/20 03:26:25;;;;;;;3.03;2.20;;;;;;;21.03;68.15;100336.91;4957252;28;20269;-67
2022/10/20 03:28:51;;;;;;;3.93;2.20;;;;;;;21.04;67.64;100332.84;4973258;28;20167;-67
2022/10/20 03:31:16;;;;;;;3.13;2.33;;;;;;;21.04;68.18;100334.88;4958978;28;20245;-68
2022/10/20 03:33:42;;;;;;;2.70;2.20;;;;;;;21.04;68.11;100334.88;4941634;28;20174;-67
2022/10/20 03:36:07;;;;;;;3.87;2.20;;;;;;;21.05;67.84;100340.22;4974661;28;20166;-68
2022/10/20 03:38:33;;;;;;;3.87;2.80;;;;;;;21.03;67.67;100347.59;4941059;28;20194;-68
2022/10/20 03:40:58;;;;;;;4.20;2.07;;;;;;;21.03;68.06;100347.59;4974590;28;20665;-69
2022/10/20 03:43:23;;;;;;;2.70;1.90;;;;;;;21.03;68.25;100345.53;4940899;28;20183;-68
2022/10/20 03:45:49;;;;;;;2.90;2.30;;;;;;;21.02;67.83;100343.88;4956138;28;20673;-67
2022/10/20 03:48:14;;;;;;;2.40;1.80;;;;;;;21.03;67.74;100344.72;4956738;28;20639;-68
2022/10/20 03:50:40;;;;;;;2.97;2.10;;;;;;;21.03;67.87;100342.66;4974249;28;20523;-68
2022/10/20 03:53:06;;;;;;;4.20;2.43;;;;;;;21.02;68.16;100348.81;4957156;28;20166;-68
2022/10/20 03:55:31;;;;;;;3.60;2.30;;;;;;;21.02;68.04;100341.00;4956510;28;20178;-67
2022/10/20 03:57:57;;;;;;;3.80;1.90;;;;;;;21.03;68.03;100338.97;4940877;28;20171;-67
2022/10/20 04:00:22;;;;;;;3.60;2.80;;;;;;;21.03;67.62;100342.66;4940478;28;20166;-68
2022/10/20 04:02:48;;;;;;;2.90;2.20;;;;;;;21.01;67.78;100333.63;4958309;28;20273;-67
2022/10/20 04:05:17;;;;;;;3.20;2.10;;;;;;;21.03;68.14;100333.22;4936966;29;20313;-68
2022/10/20 04:07:43;;;;;;;3.20;1.90;;;;;;;21.01;68.08;100327.88;4937619;29;20167;-67
2022/10/20 04:10:09;;;;;;;3.23;2.17;;;;;;;21.01;67.62;100330.75;4937634;29;20972;-67
2022/10/20 04:12:34;;;;;;;2.93;2.10;;;;;;;21.01;68.24;100324.19;4906208;29;20164;-68
2022/10/20 04:14:59;;;;;;;2.57;2.20;;;;;;;21.01;67.93;100327.88;4937366;29;20474;-68
2022/10/20 04:17:25;;;;;;;3.03;2.17;;;;;;;21.01;67.87;100333.63;4925576;28;20229;-68
2022/10/20 04:19:50;;;;;;;3.93;2.40;;;;;;;21.00;68.34;100329.09;4973751;28;20190;-67
2022/10/20 04:22:16;;;;;;;3.53;2.50;;;;;;;21.01;68.03;100330.75;4973733;28;20174;-68
2022/10/20 04:24:41;;;;;;;3.33;2.60;;;;;;;21.01;67.85;100325.00;4956431;28;20182;-68
2022/10/20 04:27:07;;;;;;;3.83;2.20;;;;;;;21.01;68.03;100325.00;4956200;28;20697;-68
2022/10/20 04:29:32;;;;;;;3.00;2.10;;;;;;;21.02;67.63;100323.78;4956328;28;20178;-68
2022/10/20 04:31:58;;;;;;;3.50;2.13;;;;;;;21.01;68.11;100319.28;4956103;28;20186;-68
2022/10/20 04:34:23;;;;;;;3.50;2.07;;;;;;;21.01;67.83;100307.78;4955835;28;20171;-68
2022/10/20 04:36:48;;;;;;;3.60;2.30;;;;;;;21.02;68.07;100297.94;4956157;28;20197;-67
2022/10/20 04:39:14;;;;;;;3.20;1.87;;;;;;;21.01;68.00;100301.22;4956068;28;20173;-68
2022/10/20 04:41:39;;;;;;;3.77;2.67;;;;;;;21.02;68.40;100295.09;4956274;28;20570;-68
2022/10/20 04:44:05;;;;;;;2.50;1.87;;;;;;;21.01;68.47;100296.31;4956159;28;20167;-67
2022/10/20 04:46:30;;;;;;;2.50;1.97;;;;;;;21.01;67.76;100302.03;4958404;28;20190;-67
2022/10/20 04:48:56;;;;;;;3.00;2.10;;;;;;;21.01;68.21;100307.78;4987949;28;20179;-68
2022/10/20 04:51:21;;;;;;;3.13;2.33;;;;;;;21.01;68.04;100301.22;4955755;28;20186;-67
2022/10/20 04:53:46;;;;;;;2.80;2.00;;;;;;;21.02;67.93;100294.28;4988419;28;20178;-68
2022/10/20 04:56:17;;;;;;;2.73;2.00;;;;;;;21.00;68.05;100276.59;4987749;28;20248;-68
2022/10/20 04:58:48;;;;;;;2.10;1.50;;;;;;;21.02;68.32;100279.91;4966241;28;20230;-67
2022/10/20 05:01:14;;;;;;;2.83;1.93;;;;;;;21.00;68.25;100282.34;4959409;28;20426;-68
2022/10/20 05:03:39;;;;;;;2.93;1.90;;;;;;;21.00;68.13;100288.09;4965041;28;20486;-68
2022/10/20 05:06:16;;;;;;;3.27;2.50;;;;;;;21.01;67.83;100281.13;4953397;29;20225;-68
2022/10/20 05:08:42;;;;;;;2.50;2.13;;;;;;;21.00;68.31;100282.34;4936374;29;20275;-68
2022/10/20 05:11:07;;;;;;;3.40;2.27;;;;;;;21.00;67.97;100279.47;4936269;29;20424;-68
2022/10/20 05:13:33;;;;;;;2.90;2.17;;;;;;;20.99;67.89;100267.19;4920748;29;20517;-68
2022/10/20 05:15:58;;;;;;;2.57;1.80;;;;;;;21.00;68.11;100268.00;4936169;29;20166;-68
2022/10/20 05:18:24;;;;;;;3.43;2.20;;;;;;;21.01;68.09;100269.63;4936377;29;20175;-68
2022/10/20 05:20:49;;;;;;;2.90;1.80;;;;;;;21.01;68.41;100272.50;4935208;29;20202;-68
2022/10/20 05:23:15;;;;;;;3.40;1.97;;;;;;;21.02;67.79;100277.84;4967306;28;20171;-68
2022/10/20 05:25:40;;;;;;;3.17;2.23;;;;;;;21.02;68.18;100291.41;4937877;28;20226;-68
2022/10/20 05:28:06;;;;;;;2.90;1.83;;;;;;;21.01;67.99;100307.78;4972047;28;20167;-68
2022/10/20 05:30:34;;;;;;;2.70;1.80;;;;;;;21.00;68.01;100305.31;4954206;28;20167;-69
2022/10/20 05:33:00;;;;;;;3.10;2.20;;;;;;;21.02;68.12;100308.63;4954572;28;20696;-68
2022/10/20 05:35:26;;;;;;;3.03;2.20;;;;;;;21.00;67.98;100306.16;4954351;28;20426;-68
2022/10/20 05:37:52;;;;;;;2.70;2.03;;;;;;;21.00;67.71;100300.41;4938679;28;20184;-68
2022/10/20 05:40:17;;;;;;;2.67;1.90;;;;;;;21.00;68.19;100297.53;4954340;28;20932;-67
2022/10/20 05:42:43;;;;;;;2.70;1.80;;;;;;;21.00;67.95;100311.88;4971744;28;20505;-68
2022/10/20 05:45:08;;;;;;;2.80;2.10;;;;;;;21.00;68.05;100311.88;4938095;28;20657;-68
2022/10/20 05:47:34;;;;;;;2.60;1.90;;;;;;;21.00;68.04;100297.53;4954812;28;20194;-68
2022/10/20 05:49:59;;;;;;;2.33;1.90;;;;;;;21.00;67.99;100296.69;4955132;28;20163;-68
2022/10/20 05:52:24;;;;;;;2.67;2.03;;;;;;;20.99;68.05;100297.94;4954611;28;20630;-68
2022/10/20 05:54:50;;;;;;;3.13;1.70;;;;;;;21.02;67.59;100302.88;4955160;28;20665;-68
2022/10/20 05:57:16;;;;;;;3.07;2.30;;;;;;;21.01;68.03;100289.72;4974940;28;20173;-68
2022/10/20 05:59:41;;;;;;;2.77;2.00;;;;;;;21.00;67.81;100294.66;4985845;28;20170;-68
2022/10/20 06:02:08;;;;;;;3.33;2.50;;;;;;;21.00;67.81;100296.69;4954700;28;20183;-68
2022/10/20 06:04:34;;;;;;;2.80;1.90;;;;;;;21.01;68.37;100295.47;4936071;29;20228;-68
2022/10/20 06:06:59;;;;;;;3.00;2.00;;;;;;;21.02;68.12;100291.41;4931653;29;20459;-68
2022/10/20 06:09:25;;;;;;;2.83;2.10;;;;;;;21.01;67.93;100296.31;4936070;29;20172;-68
2022/10/20 06:11:50;;;;;;;3.30;1.90;;;;;;;21.02;68.11;100305.75;4921588;29;20168;-67
2022/10/20 06:14:16;;;;;;;4.47;2.33;;;;;;;21.00;67.84;100303.28;4922981;29;20238;-68
2022/10/20 06:16:42;;;;;;;2.60;1.83;;;;;;;21.02;68.00;100302.88;4922955;29;20164;-67
2022/10/20 06:19:08;;;;;;;3.40;2.20;;;;;;;21.02;68.20;100309.44;4923037;29;20176;-68
2022/10/20 06:21:33;;;;;;;4.20;2.03;;;;;;;21.01;68.21;100307.78;4942552;29;20219;-68
2022/10/20 06:23:59;;;;;;;2.70;1.83;;;;;;;21.01;68.19;100307.78;4937975;29;20215;-68
2022/10/20 06:26:28;;;;;;;2.97;2.17;;;;;;;21.02;68.31;100318.03;4931378;28;20199;-68
2022/10/20 06:28:54;;;;;;;2.80;2.00;;;;;;;21.03;67.95;100322.56;4940926;29;20178;-68
2022/10/20 06:31:31;;;;;;;2.60;1.80;;;;;;;21.03;67.85;100327.50;4956952;29;20472;-68
2022/10/20 06:33:56;;;;;;;3.40;1.90;;;;;;;21.01;67.92;100322.13;4955607;29;20425;-68
2022/10/20 06:36:22;;;;;;;2.77;2.10;;;;;;;21.03;68.10;100324.63;4940138;29;20766;-68
2022/10/20 06:38:52;;;;;;;3.10;2.30;;;;;;;21.03;68.12;100331.16;4956080;29;20168;-68
2022/10/20 06:41:17;;;;;;;2.83;2.13;;;;;;;21.02;67.62;100332.41;4940162;29;20213;-68
2022/10/20 06:43:43;;;;;;;2.70;2.00;;;;;;;21.02;68.17;100332.41;4940473;29;20407;-68
2022/10/20 06:46:13;;;;;;;2.87;1.93;;;;;;;21.03;67.96;100333.22;4940231;29;20199;-68
2022/10/20 06:48:39;;;;;;;2.93;1.87;;;;;;;21.02;68.08;100338.13;4957684;28;20525;-68
2022/10/20 06:51:15;;;;;;;3.10;1.90;;;;;;;21.01;67.99;100330.75;4958168;28;20399;-68
2022/10/20 06:53:41;;;;;;;2.60;1.90;;;;;;;21.02;67.82;100341.00;4952931;28;20186;-68
2022/10/20 06:56:17;;;;;;;2.70;2.07;;;;;;;21.03;67.89;100333.22;4946935;29;20551;-68
2022/10/20 06:58:44;;;;;;;2.80;2.00;;;;;;;21.03;68.02;100339.78;4936352;28;20433;-67
2022/10/20 07:01:26;;;;;;;2.93;2.20;;;;;;;21.01;67.97;100330.75;4958226;28;20516;-68
2022/10/20 07:03:53;;;;;;;3.07;1.90;;;;;;;21.02;68.04;100300.00;4937575;29;20475;-68
2022/10/20 07:06:23;;;;;;;2.87;2.03;;;;;;;21.02;68.32;100308.63;4922429;29;20529;-68
2022/10/20 07:08:49;;;;;;;2.47;1.70;;;;;;;21.02;67.56;100303.69;4945999;29;20863;-68
2022/10/20 07:11:20;;;;;;;2.27;1.70;;;;;;;21.03;68.09;100322.56;4953889;28;20423;-68
2022/10/20 07:13:45;;;;;;;2.13;1.50;;;;;;;21.03;67.80;100316.81;4939531;29;20427;-68
2022/10/20 07:16:12;;;;;;;2.47;1.87;;;;;;;21.01;68.02;100307.78;4941353;28;20978;-68
2022/10/20 07:18:38;;;;;;;3.57;2.37;;;;;;;21.01;67.99;100319.28;4932901;29;20183;-68
2022/10/20 07:21:05;;;;;;;3.07;2.20;;;;;;;21.02;67.69;100329.53;4945740;28;20498;-68
2022/10/20 07:23:34;;;;;;;2.33;1.70;;;;;;;21.03;68.29;100316.81;4951929;28;20180;-68
2022/10/20 07:26:13;;;;;;;2.57;1.77;;;;;;;21.03;67.80;100324.63;4936257;29;20458;-68
2022/10/20 07:28:42;;;;;;;2.57;1.70;;;;;;;21.02;67.75;100320.91;4938081;28;20766;-68
2022/10/20 07:31:13;;;;;;;2.33;1.87;;;;;;;21.03;67.79;100321.75;4945622;28;20455;-68
2022/10/20 07:33:38;;;;;;;2.40;1.90;;;;;;;21.03;67.79;100324.63;4961620;28;20458;-68
2022/10/20 07:36:30;;;;;;;3.07;2.10;;;;;;;21.02;67.62;100329.53;4931057;29;20434;-68
2022/10/20 07:38:57;;;;;;;2.70;1.83;;;;;;;21.05;67.94;100308.66;4935815;28;20210;-68
2022/10/20 07:41:22;;;;;;;2.70;1.80;;;;;;;21.04;68.10;100311.91;4934483;29;20926;-68
2022/10/20 07:43:48;;;;;;;2.90;2.00;;;;;;;21.04;67.84;100320.53;4948145;29;20435;-68
2022/10/20 07:46:13;;;;;;;2.63;2.00;;;;;;;21.06;68.14;100313.16;4946519;28;20211;-68
2022/10/20 07:48:39;;;;;;;2.50;1.80;;;;;;;21.03;67.82;100325.44;4947816;29;20191;-68
2022/10/20 07:51:17;;;;;;;3.23;2.10;;;;;;;21.06;68.33;100341.88;4950511;28;20707;-68
2022/10/20 07:53:42;;;;;;;3.37;2.63;;;;;;;20.95;65.63;100355.31;4958844;28;20232;-68
2022/10/20 07:56:08;;;;;;;9.40;6.87;;;;;;;20.84;66.87;100350.66;4948777;29;20481;-67
2022/10/20 07:58:33;;;;;;;20.40;11.87;;;;;;;20.73;62.95;100346.84;4934323;29;20187;-67
2022/10/20 08:00:59;;;;;;;20.80;13.33;;;;;;;20.75;65.23;100370.22;4946264;29;20203;-67
2022/10/20 08:03:24;;;;;;;21.10;14.87;;;;;;;20.77;65.32;100385.84;4950274;28;20230;-67
2022/10/20 08:05:50;;;;;;;26.30;15.73;;;;;;;20.95;64.20;100378.28;4951356;28;20210;-67
2022/10/20 08:08:15;;;;;;;34.63;15.63;;;;;;;21.07;64.36;100389.44;4946923;28;20182;-67
2022/10/20 08:10:41;;;;;;;23.37;15.03;;;;;;;21.06;61.36;100384.94;4950565;28;20186;-70
2022/10/20 08:13:06;;;;;;;25.73;15.70;;;;;;;21.19;61.98;100397.78;4950675;28;20197;-69
2022/10/20 08:15:31;;;;;;;22.77;16.10;;;;;;;21.28;62.38;100395.38;4958199;28;20179;-67
2022/10/20 08:17:57;;;;;;;28.83;14.30;;;;;;;21.37;61.85;100400.81;4957169;28;20186;-68
2022/10/20 08:20:22;;;;;;;22.83;13.53;;;;;;;21.43;61.82;100405.75;4927585;28;20178;-68
2022/10/20 08:22:47;;;;;;;24.90;15.00;;;;;;;;;;4948223;28;20191;-68
2022/10/20 08:25:13;;;;;;;23.70;16.30;;;;;;;21.50;62.02;100411.56;4944519;28;20186;-68
2022/10/20 08:27:39;;;;;;;26.73;17.73;;;;;;;21.54;64.38;100412.44;4930055;28;20202;-67
2022/10/20 08:30:05;;;;;;;19.20;13.13;;;;;;;21.51;62.05;100407.47;4958669;28;20438;-68
2022/10/20 08:32:30;;;;;;;15.37;11.47;;;;;;;21.47;61.36;100418.09;4922713;28;20277;-67
2022/10/20 08:34:56;;;;;;;19.27;11.37;;;;;;;21.51;61.88;100407.47;4956515;28;20222;-68
2022/10/20 08:37:21;;;;;;;18.10;12.37;;;;;;;21.69;62.02;100408.47;4938629;28;20604;-68
2022/10/20 08:39:46;;;;;;;18.17;13.10;;;;;;;21.91;62.37;100395.03;4955837;28;20516;-68
2022/10/20 08:42:12;;;;;;;16.10;10.80;;;;;;;21.84;61.97;100398.72;4948067;28;20658;-68
2022/10/20 08:44:38;;;;;;;15.63;10.83;;;;;;;21.70;61.65;100390.00;4923956;28;20186;-67
2022/10/20 08:47:10;;;;;;;15.70;9.43;;;;;;;21.64;62.24;100394.44;4955930;28;20290;-68
2022/10/20 08:49:36;;;;;;;16.77;10.10;;;;;;;21.64;62.20;100388.69;4943269;28;20459;-68
2022/10/20 08:52:01;;;;;;;12.03;8.33;;;;;;;21.69;61.61;100382.59;4956765;28;20484;-68
2022/10/20 08:54:27;;;;;;;12.47;9.27;;;;;;;21.60;62.08;100379.22;4942310;28;20209;-67
2022/10/20 08:56:53;;;;;;;18.47;9.60;;;;;;;21.59;62.07;100383.31;4940062;28;20791;-68
2022/10/20 08:59:28;;;;;;;14.00;9.33;;;;;;;21.54;62.40;100369.34;4940710;28;20998;-68
2022/10/20 09:01:53;;;;;;;13.50;8.60;;;;;;;21.52;61.87;100380.38;4960428;28;20181;-68
2022/10/20 09:04:33;;;;;;;15.87;9.10;;;;;;;21.53;62.03;100370.53;4957284;28;20943;-67
2022/10/20 09:07:00;;;;;;;13.37;7.40;;;;;;;21.50;62.27;100376.25;4940421;28;20199;-66
2022/10/20 09:09:26;;;;;;;12.73;7.40;;;;;;;21.46;62.39;100367.63;4945938;28;20433;-67
2022/10/20 09:11:52;;;;;;;13.90;8.67;;;;;;;21.46;62.51;100364.75;4932316;28;20550;-67
2022/10/20 09:14:17;;;;;;;13.37;8.10;;;;;;;21.49;61.81;100360.25;4940115;28;20439;-68
2022/10/20 09:16:45;;;;;;;15.03;7.60;;;;;;;21.50;62.00;100365.59;4937733;28;20199;-67
2022/10/20 09:19:21;;;;;;;12.60;7.77;;;;;;;21.50;62.37;100376.25;4930117;28;20181;-66
2022/10/20 09:21:51;;;;;;;9.97;7.10;;;;;;;21.48;62.23;100381.59;4947425;28;20444;-67
2022/10/20 09:24:16;;;;;;;14.30;8.63;;;;;;;21.46;62.21;100379.13;4939009;28;20974;-68
2022/10/20 09:26:43;;;;;;;15.30;7.70;;;;;;;21.50;61.58;100382.84;4915982;28;20469;-68
2022/10/20 09:29:10;;;;;;;14.30;7.67;;;;;;;;;;4938966;28;20190;-68
2022/10/20 09:31:46;;;;;;;10.90;7.30;;;;;;;21.36;62.64;100381.88;4957972;28;20526;-67
2022/10/20 09:34:25;;;;;;;13.70;7.97;;;;;;;21.29;62.83;100376.94;4929610;28;20505;-67
2022/10/20 09:37:05;;;;;;;13.70;8.00;;;;;;;21.28;61.86;100380.22;4952110;28;20471;-67
2022/10/20 09:39:51;;;;;;;20.10;8.73;;;;;;;21.25;62.02;100372.38;4961888;28;20940;-67
2022/10/20 09:42:33;;;;;;;13.73;8.63;;;;;;;21.23;62.26;100367.03;4948695;28;20465;-66
2022/10/20 09:45:20;;;;;;;11.37;7.13;;;;;;;21.24;62.08;100362.94;4938526;28;20436;-67
2022/10/20 09:47:47;;;;;;;11.23;7.80;;;;;;;21.23;62.07;100364.16;4955297;28;20966;-67
2022/10/20 09:50:33;;;;;;;13.33;8.07;;;;;;;21.24;61.98;100351.47;4925658;28;20457;-66
2022/10/20 09:52:58;;;;;;;14.40;8.63;;;;;;;21.29;62.88;100336.75;4938686;28;20422;-66
2022/10/20 09:55:29;;;;;;;29.03;8.53;;;;;;;21.29;62.47;100305.16;4940208;29;20466;-67
2022/10/20 09:57:54;;;;;;;18.07;8.03;;;;;;;21.25;63.31;100275.56;4941098;28;20186;-66
2022/10/20 10:00:24;;;;;;;19.83;8.33;;;;;;;21.26;63.13;100285.84;4951536;28;20439;-67
2022/10/20 10:02:51;;;;;;;15.27;7.23;;;;;;;21.24;63.26;100367.84;4953285;28;20194;-67
2022/10/20 10:05:18;;;;;;;20.23;8.50;;;;;;;21.24;63.93;100373.59;4925572;28;20462;-67
2022/10/20 10:07:44;;;;;;;13.57;7.43;;;;;;;21.21;63.18;100358.00;4941004;28;20961;-67
2022/10/20 10:10:18;;;;;;;15.47;6.33;;;;;;;21.21;63.18;100351.41;4938901;28;20441;-66
2022/10/20 10:12:50;;;;;;;14.67;7.20;;;;;;;21.18;63.56;100355.91;4954993;28;20206;-66
2022/10/20 10:15:22;;;;;;;13.87;6.90;;;;;;;21.17;63.16;100351.38;4947077;28;20941;-68
2022/10/20 10:17:47;;;;;;;17.87;7.03;;;;;;;21.19;63.47;100343.22;4953114;28;20473;-67
2022/10/20 10:20:13;;;;;;;23.30;7.93;;;;;;;21.19;63.60;100346.09;4964225;28;21911;-67
2022/10/20 10:22:38;;;;;;;17.13;7.70;;;;;;;21.17;63.87;100345.66;4965659;28;20218;-68
2022/10/20 10:25:05;;;;;;;24.43;8.17;;;;;;;21.20;63.95;100324.75;4925907;28;20213;-68
2022/10/20 10:27:31;;;;;;;18.03;8.77;;;;;;;21.22;65.05;100322.31;4946062;28;20202;-68
2022/10/20 10:30:15;;;;;;;33.20;8.63;;;;;;;21.19;64.92;100331.72;4935678;28;20438;-67
2022/10/20 10:32:44;;;;;;;27.93;8.50;;;;;;;21.17;64.56;100325.53;4957115;28;20446;-67
2022/10/20 10:35:38;;;;;;;21.07;8.63;;;;;;;21.19;64.34;100325.16;4935048;28;20430;-67
2022/10/20 10:38:04;;;;;;;20.03;8.00;;;;;;;21.18;64.26;100315.72;4956729;28;20477;-67
2022/10/20 10:40:35;;;;;;;14.80;7.73;;;;;;;21.16;64.50;100321.03;4953125;28;20789;-67
2022/10/20 10:43:35;;;;;;;14.33;7.97;;;;;;;21.15;64.24;100342.38;4922175;28;20661;-68
2022/10/20 10:46:16;;;;;;;18.47;7.40;;;;;;;21.15;65.00;100307.06;4956076;28;21368;-67
2022/10/20 10:48:44;;;;;;;17.10;7.63;;;;;;;21.15;65.12;100307.91;4950005;29;20438;-67
2022/10/20 10:51:19;;;;;;;17.33;7.27;;;;;;;21.14;64.78;100303.41;4958676;28;20430;-67
2022/10/20 10:53:59;;;;;;;22.40;6.77;;;;;;;21.14;64.73;100300.53;4954053;28;20414;-67
2022/10/20 10:56:39;;;;;;;13.80;7.60;;;;;;;21.15;65.32;100316.53;4957450;28;20411;-67
2022/10/20 10:59:08;;;;;;;16.00;6.73;;;;;;;21.16;64.77;100312.41;4959705;28;20434;-67
2022/10/20 11:01:40;;;;;;;14.50;6.10;;;;;;;21.15;65.35;100313.66;4956393;28;20435;-67
2022/10/20 11:04:24;;;;;;;15.10;6.70;;;;;;;21.15;65.07;100319.41;4957200;28;20482;-67
2022/10/20 11:07:14;;;;;;;7.53;5.30;;;;;;;21.14;65.30;100314.88;4965725;28;20468;-67
2022/10/20 11:09:56;;;;;;;11.30;6.40;;;;;;;21.13;65.70;100298.84;4942850;28;20429;-67
2022/10/20 11:12:27;;;;;;;12.03;6.90;;;;;;;21.14;65.18;100294.78;4957865;28;20418;-67
2022/10/20 11:15:23;;;;;;;10.70;6.37;;;;;;;21.13;65.71;100295.16;4959757;28;20517;-67
2022/10/20 11:17:58;;;;;;;14.30;6.30;;;;;;;21.14;66.00;100291.91;4968086;28;20406;-67
2022/10/20 11:20:39;;;;;;;9.43;6.57;;;;;;;21.12;65.54;100297.22;4944279;28;20425;-67
2022/10/20 11:23:13;;;;;;;10.00;5.90;;;;;;;21.13;65.71;100298.03;4969225;28;20425;-67
2022/10/20 11:25:56;;;;;;;11.90;6.27;;;;;;;21.13;65.45;100295.16;4955472;28;20442;-67
2022/10/20 11:28:27;;;;;;;10.53;5.77;;;;;;;21.15;65.70;100284.94;4942440;28;20433;-67
2022/10/20 11:30:52;;;;;;;12.43;6.87;;;;;;;21.12;65.75;100282.84;4943108;28;21019;-68
2022/10/20 11:33:19;;;;;;;9.97;5.83;;;;;;;21.11;65.71;100283.25;4941823;28;20445;-67